Time;durP1;ratioP1;P1;durP2;ratioP2;P2;SDS_P1;SDS_P2;PMS_P1;PMS_P2;Temp;Humidity;BMP_temperature;BMP_pressure;BME280_temperature;BME280_humidity;BME280_pressure;Samples;Min_cycle;Max_cycle;Signal;HPM_P1;HPM_P2
2021/08/04 00:01:21;;;;;;;3.55;1.92;;;;;;;;;;8272867;28;20367;-72
2021/08/04 00:05:27;;;;;;;3.47;2.25;;;;;;;;;;8271835;28;20388;-71
2021/08/04 00:09:33;;;;;;;3.22;2.25;;;;;;;;;;8256873;28;20487;-72
2021/08/04 00:13:38;;;;;;;5.18;2.60;;;;;;;;;;8258081;28;20367;-72
2021/08/04 00:17:43;;;;;;;5.88;2.05;;;;;;;;;;8238694;28;20049;-72
2021/08/04 00:21:48;;;;;;;3.80;2.00;;;;;;;;;;8256467;28;20049;-72
2021/08/04 00:25:54;;;;;;;7.30;2.45;;;;;;;;;;8257675;28;20336;-73
2021/08/04 00:30:06;;;;;;;7.40;2.38;;;;;;;;;;8240373;28;20058;-72
2021/08/04 00:34:11;;;;;;;2.47;1.95;;;;;;;;;;8243103;28;20045;-72
2021/08/04 00:38:16;;;;;;;4.53;2.20;;;;;;;;;;8244916;28;20488;-72
2021/08/04 00:42:22;;;;;;;4.38;1.88;;;;;;;;;;8243963;28;20505;-72
2021/08/04 00:46:27;;;;;;;4.53;2.15;;;;;;;;;;8226915;28;20495;-71
2021/08/04 00:50:33;;;;;;;3.42;2.20;;;;;;;;;;8264558;28;20045;-72
2021/08/04 00:54:38;;;;;;;7.40;1.88;;;;;;;;;;8244605;28;20468;-76
2021/08/04 00:58:44;;;;;;;8.57;2.13;;;;;;;;;;8244246;28;20468;-75
2021/08/04 01:03:00;;;;;;;5.72;2.20;;;;;;;;;;8261141;28;20045;-75
2021/08/04 01:07:19;;;;;;;4.47;2.17;;;;;;;;;;8227951;28;20486;-76
2021/08/04 01:11:35;;;;;;;3.08;1.83;;;;;;;;;;8263038;28;20402;-75
2021/08/04 01:15:46;;;;;;;4.28;2.30;;;;;;;;;;8227467;28;20380;-74
2021/08/04 01:20:05;;;;;;;3.35;2.08;;;;;;;;;;8243933;28;20352;-74
2021/08/04 01:24:52;;;;;;;4.30;2.08;;;;;;;;;;8227297;28;20383;-74
2021/08/04 01:29:00;;;;;;;7.00;1.77;;;;;;;;;;8191272;28;20412;-73
2021/08/04 01:33:06;;;;;;;4.15;2.25;;;;;;;;;;8209691;28;20396;-74
2021/08/04 01:37:12;;;;;;;3.85;2.08;;;;;;;;;;8243237;28;20377;-74
2021/08/04 01:41:18;;;;;;;7.22;2.20;;;;;;;;;;8227960;28;20387;-74
2021/08/04 01:45:24;;;;;;;2.88;1.85;;;;;;;;;;8227010;28;20328;-73
2021/08/04 01:49:29;;;;;;;3.63;2.03;;;;;;;;;;8211357;28;20497;-74
2021/08/04 01:53:34;;;;;;;3.22;1.80;;;;;;;;;;8227415;28;20335;-73
2021/08/04 01:57:39;;;;;;;2.97;1.60;;;;;;;;;;8243226;28;20151;-73
2021/08/04 02:01:45;;;;;;;3.65;1.70;;;;;;;;;;8243285;28;20045;-73
2021/08/04 02:05:49;;;;;;;3.85;1.60;;;;;;;;;;8260819;28;20063;-74
2021/08/04 02:09:58;;;;;;;2.03;1.77;;;;;;;;;;8211405;28;20360;-73
2021/08/04 02:14:07;;;;;;;2.38;1.80;;;;;;;;;;8210752;28;20476;-74
2021/08/04 02:18:14;;;;;;;4.00;1.98;;;;;;;;;;8226196;28;20333;-73
2021/08/04 02:22:48;;;;;;;3.45;2.05;;;;;;;;;;8243319;28;20036;-73
2021/08/04 02:26:55;;;;;;;8.93;2.95;;;;;;;;;;8244252;28;20468;-72
2021/08/04 02:31:01;;;;;;;2.90;1.65;;;;;;;;;;8242177;28;20411;-73
2021/08/04 02:35:07;;;;;;;2.97;2.10;;;;;;;;;;8258765;28;20482;-73
2021/08/04 02:39:13;;;;;;;7.15;2.63;;;;;;;;;;8241327;28;20367;-73
2021/08/04 02:43:23;;;;;;;4.57;2.22;;;;;;;;;;8241558;28;20448;-72
2021/08/04 02:47:28;;;;;;;8.15;3.47;;;;;;;;;;8223962;28;20484;-74
2021/08/04 02:51:34;;;;;;;5.45;3.13;;;;;;;;;;8224301;28;20377;-73
2021/08/04 02:55:39;;;;;;;5.47;3.58;;;;;;;;;;8224645;28;20372;-73
2021/08/04 02:59:44;;;;;;;9.73;4.03;;;;;;;;;;8225498;28;20464;-73
2021/08/04 03:03:49;;;;;;;4.15;2.40;;;;;;;;;;8208889;28;20371;-73
2021/08/04 03:07:54;;;;;;;8.27;2.50;;;;;;;;;;8226869;28;20372;-73
2021/08/04 03:11:59;;;;;;;3.55;2.45;;;;;;;;;;8224807;28;20063;-72
2021/08/04 03:16:05;;;;;;;5.15;2.55;;;;;;;;;;8207765;28;20390;-72
2021/08/04 03:20:12;;;;;;;3.08;2.30;;;;;;;;;;8223065;28;20502;-73
2021/08/04 03:24:17;;;;;;;3.47;2.10;;;;;;;;;;8225885;28;20411;-72
2021/08/04 03:28:25;;;;;;;6.03;2.60;;;;;;;;;;8224837;28;20337;-73
2021/08/04 03:32:29;;;;;;;3.70;2.00;;;;;;;;;;8225394;28;20461;-73
2021/08/04 03:36:34;;;;;;;3.70;2.15;;;;;;;;;;8224894;28;20465;-72
2021/08/04 03:40:39;;;;;;;3.92;2.17;;;;;;;;;;8206963;28;20483;-72
2021/08/04 03:44:44;;;;;;;3.45;2.38;;;;;;;;;;8225134;28;20368;-73
2021/08/04 03:48:49;;;;;;;3.85;2.08;;;;;;;;;;8253227;28;20053;-74
2021/08/04 03:52:54;;;;;;;2.50;2.13;;;;;;;;;;8256653;28;20057;-73
2021/08/04 03:56:59;;;;;;;8.73;2.10;;;;;;;;;;8256810;28;20348;-74
2021/08/04 04:01:04;;;;;;;7.15;2.50;;;;;;;;;;8258271;28;20460;-73
2021/08/04 04:05:09;;;;;;;6.65;2.13;;;;;;;;;;8258768;28;20472;-73
2021/08/04 04:09:13;;;;;;;4.28;2.10;;;;;;;;;;8260242;28;20044;-73
2021/08/04 04:13:18;;;;;;;3.72;1.80;;;;;;;;;;8263632;28;20340;-73
2021/08/04 04:17:24;;;;;;;5.43;2.10;;;;;;;;;;8229322;28;20512;-73
2021/08/04 04:21:29;;;;;;;5.25;2.13;;;;;;;;;;8245515;28;20502;-73
2021/08/04 04:25:34;;;;;;;3.08;2.25;;;;;;;;;;8263755;28;20349;-73
2021/08/04 04:29:39;;;;;;;4.05;2.55;;;;;;;;;;8262804;28;20372;-72
2021/08/04 04:33:45;;;;;;;4.40;2.60;;;;;;;;;;8262597;28;20368;-73
2021/08/04 04:37:50;;;;;;;2.72;2.03;;;;;;;;;;8263254;28;20474;-73
2021/08/04 04:41:55;;;;;;;6.03;2.78;;;;;;;;;;8262529;28;20664;-72
2021/08/04 04:45:59;;;;;;;5.35;2.65;;;;;;;;;;8262088;28;20492;-72
2021/08/04 04:50:05;;;;;;;3.85;2.67;;;;;;;;;;8263618;28;20447;-72
2021/08/04 04:54:14;;;;;;;4.75;2.70;;;;;;;;;;8245647;28;20371;-72
2021/08/04 04:58:18;;;;;;;3.33;2.47;;;;;;;;;;8245254;28;20456;-72
2021/08/04 05:02:23;;;;;;;4.70;2.50;;;;;;;;;;8245145;28;20367;-72
2021/08/04 05:06:30;;;;;;;4.95;2.83;;;;;;;;;;8261573;28;20334;-72
2021/08/04 05:12:08;;;;;;;7.78;2.78;;;;;;;;;;8172154;27;1630534;-74
2021/08/04 05:16:13;;;;;;;4.13;2.33;;;;;;;;;;8301043;28;20040;-73
2021/08/04 05:20:18;;;;;;;4.70;2.78;;;;;;;;;;8281404;28;20365;-73
2021/08/04 05:24:23;;;;;;;7.13;2.33;;;;;;;;;;8319559;28;20489;-73
2021/08/04 05:28:30;;;;;;;5.53;2.70;;;;;;;;;;8318154;28;20475;-73
2021/08/04 05:32:35;;;;;;;6.85;2.90;;;;;;;;;;8315764;28;20475;-74
2021/08/04 05:36:40;;;;;;;10.38;2.83;;;;;;;;;;8300522;28;20496;-73
2021/08/04 05:40:45;;;;;;;4.53;2.65;;;;;;;;;;8317080;28;20463;-74
2021/08/04 05:44:50;;;;;;;6.97;2.83;;;;;;;;;;8319643;28;20398;-73
2021/08/04 05:48:55;;;;;;;6.25;2.92;;;;;;;;;;8318160;28;20505;-74
2021/08/04 05:53:02;;;;;;;4.13;2.47;;;;;;;;;;8318179;28;20451;-73
2021/08/04 05:57:07;;;;;;;5.50;3.08;;;;;;;;;;8317634;28;20386;-72
2021/08/04 06:01:12;;;;;;;7.28;3.65;;;;;;;;;;8319334;28;20482;-73
2021/08/04 06:05:18;;;;;;;13.90;4.55;;;;;;;;;;8299154;28;20048;-73
2021/08/04 06:09:23;;;;;;;14.15;4.00;;;;;;;;;;8313858;28;20378;-74
2021/08/04 06:13:28;;;;;;;9.63;4.88;;;;;;;;;;8261819;28;20549;-72
2021/08/04 06:17:34;;;;;;;19.27;7.93;;;;;;;;;;8271559;28;20041;-73
2021/08/04 06:21:39;;;;;;;12.88;5.47;;;;;;;;;;8272565;28;20355;-73
2021/08/04 06:25:44;;;;;;;10.68;5.18;;;;;;;;;;8262015;28;20617;-72
2021/08/04 06:29:49;;;;;;;12.35;5.70;;;;;;;;;;8261113;28;20459;-72
2021/08/04 06:33:55;;;;;;;15.65;6.00;;;;;;;;;;8276186;28;20380;-72
2021/08/04 06:38:08;;;;;;;11.98;5.22;;;;;;;;;;8245794;28;20052;-73
2021/08/04 06:42:14;;;;;;;10.25;4.70;;;;;;;;;;8261658;28;20056;-74
2021/08/04 06:46:19;;;;;;;10.57;5.00;;;;;;;;;;8263009;28;20333;-73
2021/08/04 06:50:26;;;;;;;10.93;5.07;;;;;;;;;;8261496;28;20037;-73
2021/08/04 06:54:32;;;;;;;10.85;5.00;;;;;;;;;;8261751;28;20484;-73
2021/08/04 06:58:38;;;;;;;8.85;5.00;;;;;;;;;;8275589;28;20356;-73
2021/08/04 07:02:45;;;;;;;6.38;4.65;;;;;;;;;;8259948;28;20502;-73
2021/08/04 07:07:03;;;;;;;10.10;5.30;;;;;;;;;;8261426;28;20214;-73
2021/08/04 07:11:09;;;;;;;8.55;5.50;;;;;;;;;;8260645;28;20333;-72
2021/08/04 07:15:14;;;;;;;8.43;5.00;;;;;;;;;;8276909;28;20444;-72
2021/08/04 07:19:20;;;;;;;8.57;5.00;;;;;;;;;;8260473;28;20525;-72
2021/08/04 07:23:25;;;;;;;13.95;4.68;;;;;;;;;;8258699;28;20486;-73
2021/08/04 07:27:30;;;;;;;8.88;4.32;;;;;;;;;;8242443;28;20364;-72
2021/08/04 07:31:36;;;;;;;6.20;3.72;;;;;;;;;;8260760;28;20471;-72
2021/08/04 07:35:42;;;;;;;5.13;3.20;;;;;;;;;;8276296;28;20459;-73
2021/08/04 07:39:47;;;;;;;8.95;3.72;;;;;;;;;;8261678;28;20479;-72
2021/08/04 07:43:53;;;;;;;10.93;4.70;;;;;;;;;;8263117;28;20486;-72
2021/08/04 07:47:59;;;;;;;5.22;3.13;;;;;;;;;;8274218;28;20399;-73
2021/08/04 07:52:04;;;;;;;5.25;3.13;;;;;;;;;;8255736;28;20336;-72
2021/08/04 07:56:10;;;;;;;9.85;3.35;;;;;;;;;;8260627;28;20458;-72
2021/08/04 08:00:16;;;;;;;4.28;2.60;;;;;;;;;;8259740;28;20372;-72
2021/08/04 08:04:21;;;;;;;7.10;2.97;;;;;;;;;;8258128;28;20352;-72
2021/08/04 08:08:26;;;;;;;4.43;2.35;;;;;;;;;;8257740;28;20337;-72
2021/08/04 08:12:32;;;;;;;5.10;3.05;;;;;;;;;;8261270;28;20093;-72
2021/08/04 08:16:37;;;;;;;7.80;2.45;;;;;;;;;;8259707;28;20503;-71
2021/08/04 08:20:44;;;;;;;6.82;2.75;;;;;;;;;;8259432;28;20456;-73
2021/08/04 08:24:49;;;;;;;4.27;2.83;;;;;;;;;;8258988;28;20037;-72
2021/08/04 08:28:55;;;;;;;7.88;3.00;;;;;;;;;;8272686;28;20364;-73
2021/08/04 08:33:00;;;;;;;4.55;2.50;;;;;;;;;;8273752;28;20406;-72
2021/08/04 08:37:05;;;;;;;5.22;2.47;;;;;;;;;;8257817;28;20411;-72
2021/08/04 08:41:11;;;;;;;3.63;2.03;;;;;;;;;;8257015;28;20487;-72
2021/08/04 08:45:16;;;;;;;6.68;2.22;;;;;;;;;;8272500;28;20041;-72
2021/08/04 08:49:29;;;;;;;5.57;2.72;;;;;;;;;;8257863;28;20359;-72
2021/08/04 08:53:36;;;;;;;3.50;1.95;;;;;;;;;;8273258;28;20502;-72
2021/08/04 08:57:43;;;;;;;4.80;2.30;;;;;;;;;;8270844;28;20503;-72
2021/08/04 09:01:50;;;;;;;5.43;2.58;;;;;;;;;;8257155;28;20483;-73
2021/08/04 09:05:57;;;;;;;3.92;1.73;;;;;;;;;;8272327;28;20436;-74
2021/08/04 09:10:22;;;;;;;5.30;2.15;;;;;;;;;;8256128;28;20518;-71
2021/08/04 09:14:32;;;;;;;3.75;2.10;;;;;;;;;;8258214;28;20075;-72
2021/08/04 09:18:47;;;;;;;3.58;2.10;;;;;;;;;;8260340;28;20471;-72
2021/08/04 09:23:03;;;;;;;4.18;1.95;;;;;;;;;;8241284;28;20064;-72
2021/08/04 09:27:13;;;;;;;7.47;2.45;;;;;;;;;;8271900;28;20083;-73
2021/08/04 09:31:18;;;;;;;7.82;2.28;;;;;;;;;;8272755;28;20380;-72
2021/08/04 09:35:24;;;;;;;3.65;2.15;;;;;;;;;;8257282;28;20475;-74
2021/08/04 09:39:29;;;;;;;4.05;2.17;;;;;;;;;;8239829;28;20479;-71
2021/08/04 09:43:35;;;;;;;3.47;2.10;;;;;;;;;;8272100;28;20363;-71
2021/08/04 09:48:01;;;;;;;4.35;2.25;;;;;;;;;;8272430;28;20055;-73
2021/08/04 09:52:12;;;;;;;4.55;2.20;;;;;;;;;;8270369;28;20464;-72
2021/08/04 09:56:20;;;;;;;4.45;1.85;;;;;;;;;;8275084;28;20355;-72
2021/08/04 10:00:25;;;;;;;5.65;1.77;;;;;;;;;;8277615;28;20490;-72
2021/08/04 10:04:34;;;;;;;2.63;1.48;;;;;;;;;;8260848;28;20510;-72
2021/08/04 10:08:40;;;;;;;4.80;1.38;;;;;;;;;;8245481;28;20384;-73
2021/08/04 10:12:45;;;;;;;3.70;1.40;;;;;;;;;;8262416;28;20476;-72
2021/08/04 10:16:51;;;;;;;3.20;2.00;;;;;;;;;;8277773;28;20387;-73
2021/08/04 10:21:11;;;;;;;3.33;1.70;;;;;;;;;;8276556;28;20049;-73
2021/08/04 10:25:19;;;;;;;3.25;1.70;;;;;;;;;;8262469;28;20484;-73
2021/08/04 10:29:25;;;;;;;2.50;1.48;;;;;;;;;;8259616;28;20371;-73
2021/08/04 10:33:31;;;;;;;4.28;1.45;;;;;;;;;;8226362;28;20531;-73
2021/08/04 10:37:39;;;;;;;3.60;1.30;;;;;;;;;;8229178;28;20353;-73
2021/08/04 10:42:08;;;;;;;1.52;1.00;;;;;;;;;;8259586;28;20495;-72
2021/08/04 10:46:33;;;;;;;4.55;1.10;;;;;;;;;;8243459;28;20473;-73
2021/08/04 10:50:39;;;;;;;2.67;1.10;;;;;;;;;;8227045;28;20476;-73
2021/08/04 10:55:06;;;;;;;2.22;0.77;;;;;;;;;;8228531;28;20343;-73
2021/08/04 10:59:12;;;;;;;0.90;0.80;;;;;;;;;;8230186;28;20049;-73
2021/08/04 11:03:32;;;;;;;6.00;1.10;;;;;;;;;;8229562;28;20382;-73
2021/08/04 11:07:37;;;;;;;3.95;1.58;;;;;;;;;;8227476;28;20053;-72
2021/08/04 11:11:58;;;;;;;1.58;1.08;;;;;;;;;;8226822;28;20062;-72
2021/08/04 11:16:34;;;;;;;4.47;1.80;;;;;;;;;;8225863;28;20465;-73
2021/08/04 11:21:14;;;;;;;1.65;1.17;;;;;;;;;;8197253;28;20461;-72
2021/08/04 11:25:31;;;;;;;3.03;1.42;;;;;;;;;;8196622;28;20493;-73
2021/08/04 11:29:46;;;;;;;9.73;1.58;;;;;;;;;;8196282;28;20333;-73
2021/08/04 11:33:53;;;;;;;4.72;1.65;;;;;;;;;;8197481;28;20360;-73
2021/08/04 11:37:59;;;;;;;6.20;1.83;;;;;;;;;;8209521;28;20369;-72
2021/08/04 11:42:06;;;;;;;2.75;1.58;;;;;;;;;;8193807;28;20341;-72
2021/08/04 11:46:10;;;;;;;3.15;1.45;;;;;;;;;;8194555;28;20477;-72
2021/08/04 11:50:16;;;;;;;3.50;1.58;;;;;;;;;;8196393;28;20357;-73
2021/08/04 11:54:53;;;;;;;3.13;1.50;;;;;;;;;;8194199;28;20516;-72
2021/08/04 11:59:05;;;;;;;3.83;1.70;;;;;;;;;;8192452;28;20518;-72
2021/08/04 12:03:20;;;;;;;6.35;1.70;;;;;;;;;;8192293;28;20461;-72
2021/08/04 12:07:29;;;;;;;3.00;1.60;;;;;;;;;;8193454;28;20042;-72
2021/08/04 12:11:42;;;;;;;3.33;1.42;;;;;;;;;;8220183;28;20404;-73
2021/08/04 12:16:00;;;;;;;1.70;1.10;;;;;;;;;;8240920;28;20049;-71
2021/08/04 12:20:25;;;;;;;3.00;1.42;;;;;;;;;;8225513;28;20464;-73
2021/08/04 12:24:30;;;;;;;7.32;1.80;;;;;;;;;;8140570;28;20049;-72
2021/08/04 12:28:36;;;;;;;2.85;1.75;;;;;;;;;;8201510;28;20371;-73
2021/08/04 12:33:12;;;;;;;1.83;1.20;;;;;;;;;;8228588;28;20460;-72
2021/08/04 12:37:20;;;;;;;3.63;1.20;;;;;;;;;;8224030;28;20352;-72
2021/08/04 12:41:28;;;;;;;4.15;1.67;;;;;;;;;;8226017;28;20354;-72
2021/08/04 12:45:33;;;;;;;2.80;1.45;;;;;;;;;;8225043;28;20392;-73
2021/08/04 12:49:39;;;;;;;4.35;1.55;;;;;;;;;;8225151;28;20057;-72
2021/08/04 12:53:54;;;;;;;2.10;1.30;;;;;;;;;;8222954;28;20101;-72
2021/08/04 12:58:07;;;;;;;4.60;1.90;;;;;;;;;;8207927;28;20045;-72
2021/08/04 13:02:14;;;;;;;3.08;1.30;;;;;;;;;;8207061;28;20352;-72
2021/08/04 13:06:55;;;;;;;2.75;1.48;;;;;;;;;;8223108;28;20416;-72
2021/08/04 13:11:00;;;;;;;1.63;1.10;;;;;;;;;;8189818;28;20469;-71
2021/08/04 13:15:16;;;;;;;3.60;1.40;;;;;;;;;;8190393;28;20515;-73
2021/08/04 13:19:25;;;;;;;2.47;1.30;;;;;;;;;;8192794;28;20068;-73
2021/08/04 13:23:34;;;;;;;5.10;2.33;;;;;;;;;;8207142;28;20062;-72
2021/08/04 13:27:40;;;;;;;3.20;1.77;;;;;;;;;;8190385;28;20489;-73
2021/08/04 13:31:54;;;;;;;10.07;3.85;;;;;;;;;;8193502;28;20461;-73
2021/08/04 13:36:02;;;;;;;4.07;1.90;;;;;;;;;;8198514;28;20377;-72
2021/08/04 13:40:08;;;;;;;2.97;2.10;;;;;;;;;;8196186;28;20361;-73
2021/08/04 13:44:13;;;;;;;3.80;2.35;;;;;;;;;;8198127;28;20375;-72
2021/08/04 13:48:19;;;;;;;4.30;1.70;;;;;;;;;;8201410;28;20053;-72
2021/08/04 13:52:24;;;;;;;4.15;1.83;;;;;;;;;;8197331;28;20041;-73
2021/08/04 13:56:29;;;;;;;3.22;1.73;;;;;;;;;;8199250;28;20368;-72
2021/08/04 14:00:37;;;;;;;3.35;1.98;;;;;;;;;;8213590;28;20080;-72
2021/08/04 14:04:42;;;;;;;4.55;2.22;;;;;;;;;;8196772;28;20385;-73
2021/08/04 14:08:48;;;;;;;5.18;2.60;;;;;;;;;;8200897;28;20485;-72
2021/08/04 14:12:52;;;;;;;4.35;2.05;;;;;;;;;;8229490;28;20068;-73
2021/08/04 14:16:58;;;;;;;4.28;2.17;;;;;;;;;;8212539;28;20064;-72
2021/08/04 14:21:04;;;;;;;5.82;1.70;;;;;;;;;;8228703;28;20356;-73
2021/08/04 14:25:11;;;;;;;9.10;2.20;;;;;;;;;;8229886;28;20457;-73
2021/08/04 14:29:16;;;;;;;3.83;1.83;;;;;;;;;;8228952;28;20041;-72
2021/08/04 14:33:21;;;;;;;4.05;1.70;;;;;;;;;;8212121;28;20060;-73
2021/08/04 14:37:26;;;;;;;2.28;1.52;;;;;;;;;;8226771;28;20468;-72
2021/08/04 14:41:32;;;;;;;1.88;1.30;;;;;;;;;;8211996;28;20475;-73
2021/08/04 14:45:36;;;;;;;3.20;1.60;;;;;;;;;;8228365;28;20392;-71
2021/08/04 14:49:42;;;;;;;2.00;1.35;;;;;;;;;;8210757;28;20041;-72
2021/08/04 14:53:47;;;;;;;5.13;1.88;;;;;;;;;;8210610;28;20352;-72
2021/08/04 14:57:52;;;;;;;2.55;1.55;;;;;;;;;;8211170;28;20480;-71
2021/08/04 15:01:56;;;;;;;2.50;1.70;;;;;;;;;;8210995;28;20037;-71
2021/08/04 15:06:02;;;;;;;4.47;1.70;;;;;;;;;;8231109;28;20387;-73
2021/08/04 15:10:08;;;;;;;3.45;1.83;;;;;;;;;;8215955;28;20480;-73
2021/08/04 15:14:14;;;;;;;2.60;2.10;;;;;;;;;;8228344;28;20472;-72
2021/08/04 15:18:19;;;;;;;7.00;1.95;;;;;;;;;;8229528;28;20072;-72
2021/08/04 15:22:25;;;;;;;5.40;1.67;;;;;;;;;;8210103;28;20495;-73
2021/08/04 15:26:30;;;;;;;5.22;2.22;;;;;;;;;;8229876;28;20485;-72
2021/08/04 15:30:35;;;;;;;1.92;1.63;;;;;;;;;;8226172;28;20479;-72
2021/08/04 15:34:40;;;;;;;2.20;1.63;;;;;;;;;;8209777;28;20371;-73
2021/08/04 15:38:47;;;;;;;2.85;2.05;;;;;;;;;;8226011;28;20465;-74
2021/08/04 15:42:52;;;;;;;4.18;2.53;;;;;;;;;;8208246;28;20465;-72
2021/08/04 15:46:58;;;;;;;7.18;2.20;;;;;;;;;;8229172;28;20472;-72
2021/08/04 15:51:03;;;;;;;3.88;1.85;;;;;;;;;;8210326;28;20399;-72
2021/08/04 15:55:10;;;;;;;1.95;1.27;;;;;;;;;;8227289;28;20437;-72
2021/08/04 15:59:14;;;;;;;2.22;1.52;;;;;;;;;;8226256;28;20053;-72
2021/08/04 16:03:19;;;;;;;3.05;1.70;;;;;;;;;;8227104;28;20452;-72
2021/08/04 16:07:24;;;;;;;2.00;1.30;;;;;;;;;;8210639;28;20475;-72
2021/08/04 16:11:30;;;;;;;2.35;1.42;;;;;;;;;;8207935;28;20080;-73
2021/08/04 16:15:36;;;;;;;2.88;1.30;;;;;;;;;;8192537;28;20370;-73
2021/08/04 16:19:43;;;;;;;1.92;1.23;;;;;;;;;;8208735;28;20337;-72
2021/08/04 16:23:48;;;;;;;2.28;1.17;;;;;;;;;;8193243;28;20350;-72
2021/08/04 16:27:54;;;;;;;1.98;1.50;;;;;;;;;;8197977;28;20492;-73
2021/08/04 16:32:00;;;;;;;2.70;1.45;;;;;;;;;;8191439;28;20480;-72
2021/08/04 16:36:05;;;;;;;5.07;1.98;;;;;;;;;;8208417;28;20054;-71
2021/08/04 16:40:13;;;;;;;2.63;1.25;;;;;;;;;;8195148;28;20054;-72
2021/08/04 16:44:18;;;;;;;3.22;1.35;;;;;;;;;;8193266;28;20465;-73
2021/08/04 16:48:23;;;;;;;2.70;1.60;;;;;;;;;;8192658;28;20063;-72
2021/08/04 16:52:29;;;;;;;2.33;1.42;;;;;;;;;;8195573;28;20375;-72
2021/08/04 16:56:36;;;;;;;2.88;1.70;;;;;;;;;;8192491;28;20068;-72
2021/08/04 17:00:43;;;;;;;1.93;1.50;;;;;;;;;;8214398;28;20441;-72
2021/08/04 17:04:48;;;;;;;2.35;1.50;;;;;;;;;;8199517;28;20456;-72
2021/08/04 17:08:54;;;;;;;2.42;1.23;;;;;;;;;;8197713;28;20058;-72
2021/08/04 17:12:59;;;;;;;1.85;1.25;;;;;;;;;;8227487;28;20498;-72
2021/08/04 17:17:05;;;;;;;3.92;1.30;;;;;;;;;;8225541;28;20476;-72
2021/08/04 17:21:10;;;;;;;2.95;1.60;;;;;;;;;;8207564;28;20346;-72
2021/08/04 17:25:17;;;;;;;1.70;1.05;;;;;;;;;;8206964;28;20452;-72
2021/08/04 17:29:22;;;;;;;1.63;1.00;;;;;;;;;;8223081;28;20352;-71
2021/08/04 17:33:27;;;;;;;4.93;1.40;;;;;;;;;;8206445;28;20049;-72
2021/08/04 17:37:34;;;;;;;3.58;1.52;;;;;;;;;;8221913;28;20364;-73
2021/08/04 17:41:39;;;;;;;4.38;1.65;;;;;;;;;;8206744;28;20067;-72
2021/08/04 17:45:45;;;;;;;2.25;1.48;;;;;;;;;;8226203;28;20060;-72
2021/08/04 17:49:50;;;;;;;5.82;2.22;;;;;;;;;;8223878;28;20381;-72
2021/08/04 17:53:56;;;;;;;5.47;2.60;;;;;;;;;;8223510;28;20469;-72
2021/08/04 17:58:01;;;;;;;7.88;2.88;;;;;;;;;;8222249;28;20359;-71
2021/08/04 18:02:07;;;;;;;12.10;4.18;;;;;;;;;;8224049;28;20465;-72
2021/08/04 18:06:11;;;;;;;6.50;2.40;;;;;;;;;;8205925;28;20356;-72
2021/08/04 18:10:17;;;;;;;5.90;3.00;;;;;;;;;;8224306;28;20107;-72
2021/08/04 18:14:21;;;;;;;5.43;2.75;;;;;;;;;;8224975;28;20361;-72
2021/08/04 18:18:27;;;;;;;6.32;2.17;;;;;;;;;;8227315;28;20510;-71
2021/08/04 18:22:32;;;;;;;4.70;2.15;;;;;;;;;;8230983;28;20476;-72
2021/08/04 18:26:37;;;;;;;3.10;1.83;;;;;;;;;;8230301;28;20075;-73
2021/08/04 18:30:44;;;;;;;3.35;1.95;;;;;;;;;;8226807;28;20411;-72
2021/08/04 18:34:50;;;;;;;4.05;1.42;;;;;;;;;;8229774;28;20356;-72
2021/08/04 18:38:55;;;;;;;3.38;2.30;;;;;;;;;;8228859;28;20342;-72
2021/08/04 18:42:59;;;;;;;25.75;12.13;;;;;;;;;;8210912;28;20495;-72
2021/08/04 18:47:05;;;;;;;3.40;2.13;;;;;;;;;;8226925;28;20456;-72
2021/08/04 18:51:11;;;;;;;3.55;1.95;;;;;;;;;;8227978;28;20059;-72
2021/08/04 18:55:18;;;;;;;4.63;1.80;;;;;;;;;;8211282;28;20049;-72
2021/08/04 18:59:22;;;;;;;2.60;1.77;;;;;;;;;;8210848;28;20375;-71
2021/08/04 19:03:26;;;;;;;6.90;4.25;;;;;;;;;;8225539;28;20064;-72
2021/08/04 19:07:32;;;;;;;128.98;50.83;;;;;;;;;;8210176;28;20389;-72
2021/08/04 19:11:36;;;;;;;21.58;11.93;;;;;;;;;;8227040;28;20372;-72
2021/08/04 19:15:42;;;;;;;7.10;3.17;;;;;;;;;;8210970;28;20404;-71
2021/08/04 19:19:47;;;;;;;6.63;3.25;;;;;;;;;;8211219;28;20057;-72
2021/08/04 19:23:53;;;;;;;4.70;2.78;;;;;;;;;;8226943;28;20064;-72
2021/08/04 19:27:58;;;;;;;12.70;6.72;;;;;;;;;;8228013;28;20464;-72
2021/08/04 19:32:04;;;;;;;19.75;10.95;;;;;;;;;;8210671;28;20514;-72
2021/08/04 19:36:09;;;;;;;24.02;13.18;;;;;;;;;;8227320;28;20416;-72
2021/08/04 19:40:18;;;;;;;27.02;14.38;;;;;;;;;;8227599;28;20485;-71
2021/08/04 19:44:22;;;;;;;14.23;5.45;;;;;;;;;;8226055;28;20495;-71
2021/08/04 19:48:28;;;;;;;3.55;2.45;;;;;;;;;;8209894;28;20459;-72
2021/08/04 19:52:33;;;;;;;7.72;2.65;;;;;;;;;;8227831;28;20384;-72
2021/08/04 19:56:39;;;;;;;7.05;3.50;;;;;;;;;;8210433;28;20064;-72
2021/08/04 20:00:44;;;;;;;4.68;2.63;;;;;;;;;;8254283;28;20504;-72
2021/08/04 20:04:49;;;;;;;6.57;2.85;;;;;;;;;;8260058;28;20478;-72
2021/08/04 20:08:54;;;;;;;9.57;3.70;;;;;;;;;;8258368;28;20379;-72
2021/08/04 20:12:58;;;;;;;6.78;3.78;;;;;;;;;;8274037;28;20444;-72
2021/08/04 20:17:04;;;;;;;14.52;6.35;;;;;;;;;;8258396;28;20063;-71
2021/08/04 20:21:10;;;;;;;7.13;3.35;;;;;;;;;;8276528;28;20372;-72
2021/08/04 20:25:17;;;;;;;8.60;2.65;;;;;;;;;;8257495;28;20075;-71
2021/08/04 20:29:21;;;;;;;6.38;3.42;;;;;;;;;;8258588;28;20468;-72
2021/08/04 20:33:27;;;;;;;5.20;3.20;;;;;;;;;;8258813;28;20487;-72
2021/08/04 20:37:32;;;;;;;6.32;2.97;;;;;;;;;;8239571;28;20502;-72
2021/08/04 20:41:54;;;;;;;7.57;3.60;;;;;;;;;;8270317;28;20048;-72
2021/08/04 20:45:59;;;;;;;7.82;2.88;;;;;;;;;;8258668;28;20357;-72
2021/08/04 20:50:09;;;;;;;4.47;2.67;;;;;;;;;;8258504;28;20444;-72
2021/08/04 20:54:13;;;;;;;5.75;2.90;;;;;;;;;;8259318;28;20150;-72
2021/08/04 20:58:19;;;;;;;6.28;3.10;;;;;;;;;;8255499;28;20075;-72
2021/08/04 21:02:24;;;;;;;5.07;3.00;;;;;;;;;;8258902;28;20472;-73
2021/08/04 21:06:29;;;;;;;6.70;3.30;;;;;;;;;;8255054;28;20359;-72
2021/08/04 21:10:35;;;;;;;5.28;2.70;;;;;;;;;;8239964;28;20483;-72
2021/08/04 21:14:40;;;;;;;8.98;3.50;;;;;;;;;;8239511;28;20396;-72
2021/08/04 21:18:46;;;;;;;6.72;3.72;;;;;;;;;;8239254;28;20064;-72
2021/08/04 21:22:51;;;;;;;6.65;3.42;;;;;;;;;;8238587;28;20491;-72
2021/08/04 21:26:57;;;;;;;6.30;3.20;;;;;;;;;;8225035;28;20384;-72
2021/08/04 21:31:01;;;;;;;5.57;3.63;;;;;;;;;;8224282;28;20072;-72
2021/08/04 21:35:08;;;;;;;9.35;4.05;;;;;;;;;;8224375;28;20388;-72
2021/08/04 21:39:13;;;;;;;4.90;3.38;;;;;;;;;;8207989;28;20494;-72
2021/08/04 21:43:18;;;;;;;5.15;3.67;;;;;;;;;;8222625;28;20042;-72
2021/08/04 21:47:23;;;;;;;4.30;3.10;;;;;;;;;;8224421;28;20472;-73
2021/08/04 21:51:29;;;;;;;7.40;3.85;;;;;;;;;;8224512;28;20738;-72
2021/08/04 21:55:34;;;;;;;5.32;3.38;;;;;;;;;;8230850;28;20364;-72
2021/08/04 21:59:39;;;;;;;14.07;6.28;;;;;;;;;;8230703;28;20330;-72
2021/08/04 22:03:44;;;;;;;154.77;48.03;;;;;;;;;;8230000;28;20391;-72
2021/08/04 22:07:50;;;;;;;76.40;25.42;;;;;;;;;;8229086;28;20053;-72
2021/08/04 22:11:55;;;;;;;52.92;21.20;;;;;;;;;;8255933;28;20372;-73
2021/08/04 22:16:00;;;;;;;73.45;25.67;;;;;;;;;;8244764;28;20411;-72
2021/08/04 22:20:07;;;;;;;111.90;34.35;;;;;;;;;;8263213;28;20359;-72
2021/08/04 22:24:29;;;;;;;47.47;15.65;;;;;;;;;;8262883;28;20490;-72
2021/08/04 22:28:34;;;;;;;9.20;5.60;;;;;;;;;;8277724;28;20471;-72
2021/08/04 22:32:39;;;;;;;9.70;5.07;;;;;;;;;;8261054;28;20466;-71
2021/08/04 22:36:44;;;;;;;9.32;5.22;;;;;;;;;;8276198;28;20459;-72
2021/08/04 22:40:50;;;;;;;7.90;5.20;;;;;;;;;;8263960;28;20375;-72
2021/08/04 22:44:55;;;;;;;30.25;12.32;;;;;;;;;;8261943;28;20502;-72
2021/08/04 22:49:00;;;;;;;61.90;23.50;;;;;;;;;;8261060;28;20468;-72
2021/08/04 22:53:04;;;;;;;29.02;13.88;;;;;;;;;;8260932;28;20045;-72
2021/08/04 22:57:10;;;;;;;8.38;5.28;;;;;;;;;;8261705;28;20044;-72
2021/08/04 23:01:15;;;;;;;8.60;4.95;;;;;;;;;;8276599;28;20360;-72
2021/08/04 23:05:19;;;;;;;6.88;4.65;;;;;;;;;;8259187;28;20063;-72
2021/08/04 23:09:24;;;;;;;6.82;4.60;;;;;;;;;;8259722;28;20045;-74
2021/08/04 23:13:30;;;;;;;7.40;4.32;;;;;;;;;;8259616;28;20506;-72
2021/08/04 23:17:35;;;;;;;6.03;4.30;;;;;;;;;;8261974;28;20076;-72
2021/08/04 23:21:40;;;;;;;6.15;4.35;;;;;;;;;;8260440;28;20376;-75
2021/08/04 23:25:45;;;;;;;7.10;4.65;;;;;;;;;;8260241;28;20453;-72
2021/08/04 23:29:50;;;;;;;12.48;6.07;;;;;;;;;;8258627;28;20510;-72
2021/08/04 23:33:56;;;;;;;9.55;4.97;;;;;;;;;;8260075;28;20049;-73
2021/08/04 23:38:01;;;;;;;9.20;4.90;;;;;;;;;;8258673;28;20495;-72
2021/08/04 23:42:09;;;;;;;36.95;11.85;;;;;;;;;;8261100;28;20075;-72
2021/08/04 23:46:13;;;;;;;30.30;11.82;;;;;;;;;;8258685;28;20500;-72
2021/08/04 23:50:18;;;;;;;27.10;11.82;;;;;;;;;;8262002;28;20353;-72
2021/08/04 23:54:23;;;;;;;43.25;17.00;;;;;;;;;;8259567;28;20490;-72
2021/08/04 23:58:28;;;;;;;42.10;15.98;;;;;;;;;;8259653;28;20362;-72
